createdAt,value
2023-01-29T00:02:15.029Z,32.23
2023-01-29T00:04:42.271Z,30.97
2023-01-29T00:07:09.182Z,31.93
2023-01-29T00:09:36.326Z,28.47
2023-01-29T00:12:03.219Z,31.13
2023-01-29T00:14:30.657Z,32.50
2023-01-29T00:16:57.480Z,29.83
2023-01-29T00:19:24.642Z,32.37
2023-01-29T00:21:51.373Z,33.90
2023-01-29T00:24:18.512Z,31.03
2023-01-29T00:26:45.318Z,30.10
2023-01-29T00:29:12.549Z,33.37
2023-01-29T00:31:39.531Z,27.90
2023-01-29T00:34:07.534Z,27.17
2023-01-29T00:36:34.341Z,28.70
2023-01-29T00:39:02.618Z,30.57
2023-01-29T00:41:50.559Z,30.63
2023-01-29T00:44:36.806Z,26.50
2023-01-29T00:47:04.519Z,31.13
2023-01-29T00:49:31.556Z,27.97
2023-01-29T00:52:17.121Z,31.57
2023-01-29T00:54:44.236Z,24.53
2023-01-29T00:57:11.131Z,29.60
2023-01-29T00:59:38.300Z,27.47
2023-01-29T01:02:23.822Z,26.13
2023-01-29T01:04:51.188Z,25.00
2023-01-29T01:07:18.062Z,25.57
2023-01-29T01:10:03.980Z,25.20
2023-01-29T01:12:30.844Z,28.27
2023-01-29T01:14:58.231Z,23.77
2023-01-29T01:17:25.319Z,22.03
2023-01-29T01:19:52.312Z,21.57
2023-01-29T01:22:19.410Z,27.13
2023-01-29T01:24:47.035Z,22.97
2023-01-29T01:27:13.946Z,23.57
2023-01-29T01:29:41.095Z,19.27
2023-01-29T01:32:08.162Z,21.17
2023-01-29T01:34:35.811Z,19.97
2023-01-29T01:37:02.586Z,18.00
2023-01-29T01:39:29.922Z,22.50
2023-01-29T01:41:56.914Z,21.00
2023-01-29T01:44:52.337Z,15.27
2023-01-29T01:47:34.044Z,19.57
2023-01-29T01:50:08.229Z,18.93
2023-01-29T01:52:38.585Z,17.90
2023-01-29T01:55:07.113Z,15.33
2023-01-29T01:57:34.298Z,16.83
2023-01-29T02:00:10.214Z,13.60
2023-01-29T02:03:03.871Z,17.50
2023-01-29T02:05:51.574Z,15.57
2023-01-29T02:08:54.465Z,19.47
2023-01-29T02:11:21.631Z,17.07
2023-01-29T02:13:53.514Z,18.37
2023-01-29T02:16:26.282Z,12.20
2023-01-29T02:18:53.726Z,15.97
2023-01-29T02:21:29.288Z,12.60
2023-01-29T02:23:56.059Z,11.73
2023-01-29T02:26:37.753Z,12.80
2023-01-29T02:29:26.937Z,11.63
2023-01-29T02:32:01.929Z,12.30
2023-01-29T02:34:54.213Z,13.23
2023-01-29T02:37:34.993Z,12.50
2023-01-29T02:40:13.810Z,12.57
2023-01-29T02:43:01.594Z,11.73
2023-01-29T02:45:42.213Z,13.13
2023-01-29T02:48:16.019Z,13.57
2023-01-29T02:50:49.256Z,14.67
2023-01-29T02:53:27.587Z,11.87
2023-01-29T02:56:03.493Z,12.67
2023-01-29T02:58:36.648Z,12.00
2023-01-29T03:01:13.964Z,11.63
2023-01-29T03:03:45.210Z,12.63
2023-01-29T03:06:22.251Z,13.90
2023-01-29T03:08:58.967Z,14.73
2023-01-29T03:11:37.916Z,11.07
2023-01-29T03:14:13.348Z,11.77
2023-01-29T03:16:45.742Z,12.87
2023-01-29T03:19:18.918Z,14.30
2023-01-29T03:22:01.944Z,13.67
2023-01-29T03:25:05.171Z,10.30
2023-01-29T03:27:58.938Z,13.30
2023-01-29T03:30:53.812Z,12.27
2023-01-29T03:33:33.572Z,10.73
2023-01-29T03:36:08.778Z,14.43
2023-01-29T03:38:35.660Z,13.93
2023-01-29T03:41:08.946Z,10.90
2023-01-29T03:43:42.007Z,16.03
2023-01-29T03:46:29.219Z,14.43
2023-01-29T03:49:08.233Z,12.87
2023-01-29T03:51:41.245Z,15.47
2023-01-29T03:54:11.120Z,11.77
2023-01-29T03:56:47.539Z,11.53
2023-01-29T03:59:33.112Z,12.97
2023-01-29T04:02:31.800Z,12.67
2023-01-29T04:05:09.325Z,15.60
2023-01-29T04:07:51.736Z,13.63
2023-01-29T04:10:24.762Z,13.13
2023-01-29T04:13:04.018Z,11.73
2023-01-29T04:15:36.549Z,11.37
2023-01-29T04:18:03.860Z,13.90
2023-01-29T04:20:41.576Z,10.73
2023-01-29T04:23:21.043Z,9.83
2023-01-29T04:26:12.045Z,10.67
2023-01-29T04:29:13.646Z,12.90
2023-01-29T04:31:59.986Z,14.90
2023-01-29T04:34:44.915Z,11.90
2023-01-29T04:37:27.208Z,10.40
2023-01-29T04:40:16.655Z,13.67
2023-01-29T04:43:00.095Z,13.37
2023-01-29T04:45:39.141Z,12.70
2023-01-29T04:48:31.195Z,11.43
2023-01-29T04:51:11.658Z,10.63
2023-01-29T04:53:46.927Z,10.67
2023-01-29T04:56:31.300Z,9.73
2023-01-29T04:59:14.945Z,12.50
2023-01-29T05:01:42.672Z,11.57
2023-01-29T05:04:14.045Z,19.93
2023-01-29T05:06:42.461Z,10.77
2023-01-29T05:09:09.919Z,10.83
2023-01-29T05:11:37.628Z,13.27
2023-01-29T05:14:09.934Z,14.00
2023-01-29T05:16:56.001Z,11.77
2023-01-29T05:19:22.773Z,12.67
2023-01-29T05:21:50.516Z,10.20
2023-01-29T05:24:20.521Z,12.67
2023-01-29T05:27:08.655Z,12.33
2023-01-29T05:29:35.544Z,14.60
2023-01-29T05:32:03.998Z,15.77
2023-01-29T05:34:30.963Z,16.40
2023-01-29T05:36:57.976Z,11.13
2023-01-29T05:39:24.740Z,11.70
2023-01-29T05:41:51.769Z,17.53
2023-01-29T05:44:18.500Z,16.13
2023-01-29T05:46:46.166Z,12.63
2023-01-29T05:49:13.287Z,15.83
2023-01-29T05:51:40.441Z,14.67
2023-01-29T05:54:07.136Z,15.70
2023-01-29T05:56:34.152Z,17.83
2023-01-29T05:59:00.968Z,15.20
2023-01-29T06:01:28.017Z,13.90
2023-01-29T06:03:54.783Z,14.97
2023-01-29T06:06:22.100Z,18.67
2023-01-29T06:08:49.276Z,16.00
2023-01-29T06:11:18.215Z,21.27
2023-01-29T06:13:45.734Z,14.97
2023-01-29T06:16:13.772Z,22.20
2023-01-29T06:18:41.099Z,18.13
2023-01-29T06:21:11.423Z,16.43
2023-01-29T06:23:38.616Z,16.27
2023-01-29T06:26:08.473Z,18.57
2023-01-29T06:28:35.207Z,15.33
2023-01-29T06:31:23.374Z,17.43
2023-01-29T06:33:51.184Z,20.33
2023-01-29T06:36:18.305Z,21.17
2023-01-29T06:38:45.080Z,20.73
2023-01-29T06:41:13.956Z,21.67
2023-01-29T06:43:43.837Z,18.67
2023-01-29T06:46:11.252Z,20.83
2023-01-29T06:48:38.104Z,21.33
2023-01-29T06:51:07.247Z,17.83
2023-01-29T06:53:35.538Z,23.23
2023-01-29T06:56:03.056Z,19.03
2023-01-29T06:58:29.959Z,16.90
2023-01-29T07:01:17.371Z,18.47
2023-01-29T07:03:52.747Z,16.37
2023-01-29T07:06:20.029Z,16.90
2023-01-29T07:08:46.883Z,20.87
2023-01-29T07:11:14.020Z,16.70
2023-01-29T07:13:40.766Z,18.73
2023-01-29T07:16:07.924Z,18.50
2023-01-29T07:18:34.716Z,17.13
2023-01-29T07:21:06.379Z,20.20
2023-01-29T07:23:34.924Z,20.90
2023-01-29T07:26:04.124Z,20.57
2023-01-29T07:28:31.024Z,22.43
2023-01-29T07:30:58.799Z,22.10
2023-01-29T07:33:26.027Z,17.77
2023-01-29T07:35:53.431Z,20.50
2023-01-29T07:38:20.612Z,19.03
2023-01-29T07:40:48.120Z,22.30
2023-01-29T07:43:14.915Z,20.03
2023-01-29T07:45:42.143Z,18.00
2023-01-29T07:48:12.339Z,18.80
2023-01-29T07:50:40.323Z,23.97
2023-01-29T07:53:07.206Z,20.07
2023-01-29T07:55:34.314Z,25.50
2023-01-29T07:58:03.595Z,19.73
2023-01-29T08:00:31.993Z,22.47
2023-01-29T08:03:06.424Z,21.17
2023-01-29T08:05:34.140Z,21.20
2023-01-29T08:08:06.874Z,21.93
2023-01-29T08:10:36.358Z,20.20
2023-01-29T08:13:04.781Z,23.43
2023-01-29T08:15:32.664Z,20.87
2023-01-29T08:18:01.208Z,20.50
2023-01-29T08:20:28.439Z,17.43
2023-01-29T08:23:00.252Z,22.57
2023-01-29T08:25:28.224Z,16.93
2023-01-29T08:27:57.791Z,25.97
2023-01-29T08:30:30.227Z,19.03
2023-01-29T08:32:57.135Z,19.80
2023-01-29T08:35:24.559Z,17.53
2023-01-29T08:37:55.966Z,20.60
2023-01-29T08:40:23.054Z,20.47
2023-01-29T08:42:49.889Z,18.80
2023-01-29T08:45:17.486Z,21.07
2023-01-29T08:47:48.650Z,18.93
2023-01-29T08:50:17.557Z,18.37
2023-01-29T08:52:45.124Z,17.43
2023-01-29T08:55:12.923Z,21.57
2023-01-29T08:57:39.939Z,18.13
2023-01-29T09:00:09.331Z,17.73
2023-01-29T09:02:36.793Z,21.40
2023-01-29T09:05:04.072Z,20.50
2023-01-29T09:07:30.795Z,17.50
2023-01-29T09:09:57.923Z,19.60
2023-01-29T09:12:24.925Z,18.97
2023-01-29T09:14:51.967Z,20.10
2023-01-29T09:17:18.810Z,20.43
2023-01-29T09:19:45.808Z,17.10
2023-01-29T09:22:12.719Z,23.13
2023-01-29T09:24:39.757Z,20.17
2023-01-29T09:27:06.614Z,26.13
2023-01-29T09:29:35.796Z,20.67
2023-01-29T09:32:04.858Z,18.67
2023-01-29T09:34:31.892Z,20.13
2023-01-29T09:36:58.720Z,22.23
2023-01-29T09:39:25.788Z,23.53
2023-01-29T09:42:16.181Z,23.17
2023-01-29T09:45:10.753Z,21.63
2023-01-29T09:47:37.803Z,25.60
2023-01-29T09:50:20.515Z,25.53
2023-01-29T09:52:58.799Z,21.60
2023-01-29T09:55:32.580Z,22.90
2023-01-29T09:58:04.777Z,25.23
2023-01-29T10:00:40.505Z,22.60
2023-01-29T10:03:28.968Z,22.57
2023-01-29T10:06:03.565Z,23.70
2023-01-29T10:08:57.605Z,23.83
2023-01-29T10:11:43.452Z,22.80
2023-01-29T10:14:37.903Z,24.03
2023-01-29T10:17:04.981Z,25.20
2023-01-29T10:19:56.160Z,26.87
2023-01-29T10:22:48.182Z,27.93
2023-01-29T10:25:20.608Z,31.00
2023-01-29T10:27:52.104Z,26.53
2023-01-29T10:30:39.157Z,25.30
2023-01-29T10:33:12.253Z,25.93
2023-01-29T10:35:46.425Z,27.20
2023-01-29T10:38:38.529Z,28.60
2023-01-29T10:41:11.119Z,26.43
2023-01-29T10:43:43.971Z,23.97
2023-01-29T10:46:16.393Z,29.43
2023-01-29T10:49:00.302Z,27.77
2023-01-29T10:51:33.262Z,30.60
2023-01-29T10:54:20.221Z,28.90
2023-01-29T10:57:05.642Z,27.43
2023-01-29T10:59:39.783Z,31.77
2023-01-29T11:02:18.650Z,36.20
2023-01-29T11:04:46.204Z,38.23
2023-01-29T11:07:15.999Z,30.57
2023-01-29T11:09:51.306Z,31.13
2023-01-29T11:12:22.820Z,31.13
2023-01-29T11:15:14.676Z,29.83
2023-01-29T11:18:01.378Z,33.23
2023-01-29T11:20:30.307Z,34.13
2023-01-29T11:22:59.322Z,32.37
2023-01-29T11:25:27.591Z,33.50
2023-01-29T11:28:02.407Z,32.27
2023-01-29T11:30:35.991Z,31.37
2023-01-29T11:33:26.044Z,33.27
2023-01-29T11:35:53.162Z,33.30
2023-01-29T11:38:23.931Z,33.77
2023-01-29T11:40:51.957Z,36.17
2023-01-29T11:43:27.787Z,33.83
2023-01-29T11:46:06.519Z,36.30
2023-01-29T11:48:59.369Z,31.83
2023-01-29T11:51:41.349Z,33.63
2023-01-29T11:54:17.261Z,34.63
2023-01-29T11:56:46.939Z,34.83
2023-01-29T11:59:48.827Z,36.93
2023-01-29T12:02:18.599Z,33.77
2023-01-29T12:04:45.953Z,35.43
2023-01-29T12:07:16.485Z,36.30
2023-01-29T12:09:51.916Z,36.47
2023-01-29T12:12:29.822Z,34.53
2023-01-29T12:15:16.960Z,31.47
2023-01-29T12:17:52.571Z,36.87
2023-01-29T12:20:26.927Z,36.23
2023-01-29T12:23:05.020Z,36.13
2023-01-29T12:25:53.283Z,34.93
2023-01-29T12:28:42.850Z,34.83
2023-01-29T12:31:26.900Z,41.83
2023-01-29T12:34:01.938Z,39.40
2023-01-29T12:36:53.656Z,36.07
2023-01-29T12:39:21.568Z,35.00
2023-01-29T12:41:56.165Z,34.43
2023-01-29T12:44:35.525Z,38.53
2023-01-29T12:47:06.432Z,36.87
2023-01-29T12:49:38.087Z,38.53
2023-01-29T12:52:14.481Z,37.90
2023-01-29T12:54:46.339Z,37.90
2023-01-29T12:57:46.074Z,36.30
2023-01-29T13:00:22.526Z,37.97
2023-01-29T13:03:19.595Z,33.80
2023-01-29T13:06:00.764Z,34.57
2023-01-29T13:08:37.380Z,35.23
2023-01-29T13:11:27.641Z,34.50
2023-01-29T13:14:00.654Z,38.60
2023-01-29T13:16:34.091Z,35.53
2023-01-29T13:19:05.993Z,36.13
2023-01-29T13:21:40.292Z,37.90
2023-01-29T13:24:20.173Z,37.17
2023-01-29T13:26:48.770Z,36.30
2023-01-29T13:29:27.892Z,38.73
2023-01-29T13:31:57.671Z,35.17
2023-01-29T13:34:28.467Z,41.43
2023-01-29T13:36:59.091Z,41.10
2023-01-29T13:39:28.927Z,38.30
2023-01-29T13:41:58.152Z,40.37
2023-01-29T13:44:37.781Z,38.03
2023-01-29T13:47:08.949Z,44.23
2023-01-29T13:49:57.546Z,38.47
2023-01-29T13:52:34.178Z,44.60
2023-01-29T13:55:08.938Z,39.37
2023-01-29T13:57:44.901Z,43.90
2023-01-29T14:00:20.812Z,42.57
2023-01-29T14:03:13.896Z,40.30
2023-01-29T14:05:54.006Z,44.03
2023-01-29T14:08:39.295Z,41.50
2023-01-29T14:11:15.278Z,38.93
2023-01-29T14:13:44.336Z,45.80
2023-01-29T14:16:13.954Z,43.60
2023-01-29T14:18:50.538Z,43.67
2023-01-29T14:21:37.039Z,46.07
2023-01-29T14:24:16.934Z,44.80
2023-01-29T14:26:47.613Z,47.57
2023-01-29T14:29:35.741Z,45.60
2023-01-29T14:32:24.842Z,41.77
2023-01-29T14:35:02.607Z,41.97
2023-01-29T14:37:35.876Z,45.47
2023-01-29T14:40:25.313Z,42.87
2023-01-29T14:43:07.841Z,45.13
2023-01-29T14:45:37.203Z,42.10
2023-01-29T14:48:09.997Z,46.17
2023-01-29T14:50:37.658Z,40.93
2023-01-29T14:53:25.452Z,44.63
2023-01-29T14:56:12.501Z,38.33
2023-01-29T14:58:52.482Z,38.97
2023-01-29T15:01:22.364Z,47.90
2023-01-29T15:03:52.976Z,40.33
2023-01-29T15:06:28.915Z,49.40
2023-01-29T15:09:05.061Z,41.53
2023-01-29T15:11:52.547Z,40.77
2023-01-29T15:14:41.959Z,39.53
2023-01-29T15:17:17.057Z,41.33
2023-01-29T15:19:47.954Z,37.47
2023-01-29T15:22:20.356Z,33.47
2023-01-29T15:25:02.189Z,37.27
2023-01-29T15:27:30.005Z,40.80
2023-01-29T15:30:00.290Z,43.70
2023-01-29T15:32:37.697Z,35.47
2023-01-29T15:35:26.394Z,37.27
2023-01-29T15:38:17.934Z,42.93
2023-01-29T15:40:59.079Z,46.17
2023-01-29T15:43:28.933Z,39.57
2023-01-29T15:45:59.973Z,40.33
2023-01-29T15:48:45.544Z,40.40
2023-01-29T15:51:19.596Z,49.70
2023-01-29T15:53:59.482Z,47.83
2023-01-29T15:56:32.478Z,41.73
2023-01-29T15:59:07.235Z,45.93
2023-01-29T16:01:36.155Z,43.80
2023-01-29T16:04:04.080Z,45.67
2023-01-29T16:06:37.839Z,47.63
2023-01-29T16:09:05.985Z,53.00
2023-01-29T16:11:34.847Z,49.30
2023-01-29T16:14:03.483Z,47.97
2023-01-29T16:16:30.634Z,54.73
2023-01-29T16:19:00.888Z,45.53
2023-01-29T16:21:36.324Z,60.90
2023-01-29T16:24:09.318Z,68.70
2023-01-29T16:26:44.974Z,67.63
2023-01-29T16:29:16.073Z,64.63
2023-01-29T16:31:46.061Z,66.23
2023-01-29T16:34:21.215Z,55.93
2023-01-29T16:36:49.659Z,55.37
2023-01-29T16:39:32.715Z,62.77
2023-01-29T16:42:21.478Z,65.37
2023-01-29T16:44:56.236Z,54.20
2023-01-29T16:47:28.041Z,58.27
2023-01-29T16:49:58.369Z,53.40
2023-01-29T16:52:26.933Z,54.07
2023-01-29T16:55:15.890Z,56.70
2023-01-29T16:57:47.617Z,55.37
2023-01-29T17:00:22.129Z,55.90
2023-01-29T17:02:52.400Z,58.17
2023-01-29T17:05:23.897Z,56.50
2023-01-29T17:07:51.005Z,61.87
2023-01-29T17:10:20.254Z,64.63
2023-01-29T17:13:18.881Z,64.03
2023-01-29T17:15:46.866Z,59.57
2023-01-29T17:18:25.132Z,73.77
2023-01-29T17:20:54.862Z,69.10
2023-01-29T17:23:22.424Z,65.90
2023-01-29T17:25:49.645Z,68.40
2023-01-29T17:28:17.551Z,66.57
2023-01-29T17:30:56.654Z,68.33
2023-01-29T17:33:32.015Z,67.53
2023-01-29T17:35:58.992Z,65.80
2023-01-29T17:38:26.856Z,62.80
2023-01-29T17:41:02.171Z,64.87
2023-01-29T17:43:29.049Z,55.97
2023-01-29T17:45:56.504Z,59.83
2023-01-29T17:48:26.246Z,59.37
2023-01-29T17:50:58.808Z,59.13
2023-01-29T17:53:30.546Z,64.43
2023-01-29T17:56:00.278Z,57.13
2023-01-29T17:58:27.893Z,65.40
2023-01-29T18:00:55.214Z,65.43
2023-01-29T18:03:22.572Z,57.57
2023-01-29T18:05:50.669Z,58.67
2023-01-29T18:08:38.354Z,64.67
2023-01-29T18:11:05.606Z,58.10
2023-01-29T18:13:32.506Z,57.03
2023-01-29T18:15:59.594Z,59.30
2023-01-29T18:18:26.400Z,57.03
2023-01-29T18:20:53.579Z,56.33
2023-01-29T18:23:20.438Z,62.90
2023-01-29T18:25:47.448Z,56.27
2023-01-29T18:28:16.974Z,66.03
2023-01-29T18:30:47.042Z,60.27
2023-01-29T18:33:15.534Z,59.73
2023-01-29T18:35:49.165Z,61.07
2023-01-29T18:38:17.025Z,63.47
2023-01-29T18:40:44.090Z,59.37
2023-01-29T18:43:10.847Z,58.77
2023-01-29T18:45:37.897Z,56.80
2023-01-29T18:48:05.169Z,62.33
2023-01-29T18:50:33.018Z,61.03
2023-01-29T18:52:59.817Z,64.37
2023-01-29T18:55:27.031Z,65.00
2023-01-29T18:58:26.617Z,63.73
2023-01-29T19:00:41.914Z,63.47
2023-01-29T19:03:08.628Z,63.80
2023-01-29T19:05:35.669Z,71.97
2023-01-29T19:08:02.715Z,74.93
2023-01-29T19:10:29.709Z,74.30
2023-01-29T19:12:56.427Z,82.53
2023-01-29T19:15:23.492Z,83.37
2023-01-29T19:17:50.961Z,68.50
2023-01-29T19:20:18.169Z,66.57
2023-01-29T19:22:45.123Z,83.97
2023-01-29T19:25:12.767Z,82.13
2023-01-29T19:27:39.744Z,71.47
2023-01-29T19:30:07.708Z,71.00
2023-01-29T19:32:34.606Z,59.90
2023-01-29T19:35:01.869Z,61.73
2023-01-29T19:37:30.484Z,60.07
2023-01-29T19:39:58.054Z,55.93
2023-01-29T19:42:25.088Z,53.43
2023-01-29T19:44:53.441Z,55.50
2023-01-29T19:47:20.434Z,54.90
2023-01-29T19:49:47.530Z,59.13
2023-01-29T19:52:51.171Z,62.37
2023-01-29T19:55:21.004Z,52.53
2023-01-29T19:57:48.440Z,53.13
2023-01-29T20:00:17.461Z,48.50
2023-01-29T20:02:44.462Z,51.73
2023-01-29T20:05:13.086Z,48.43
2023-01-29T20:07:41.181Z,47.03
2023-01-29T20:10:11.477Z,46.63
2023-01-29T20:12:38.314Z,50.27
2023-01-29T20:15:07.247Z,45.03
2023-01-29T20:17:34.036Z,44.40
2023-01-29T20:20:01.080Z,48.77
2023-01-29T20:22:29.635Z,46.73
2023-01-29T20:24:57.217Z,43.03
2023-01-29T20:27:24.097Z,43.90
2023-01-29T20:29:52.629Z,43.93
2023-01-29T20:32:19.528Z,40.97
2023-01-29T20:34:51.785Z,41.73
2023-01-29T20:37:19.368Z,44.07
2023-01-29T20:39:46.997Z,41.90
2023-01-29T20:42:14.150Z,42.37
2023-01-29T20:44:41.337Z,41.37
2023-01-29T20:47:08.564Z,40.23
2023-01-29T20:49:35.801Z,40.07
2023-01-29T20:52:02.562Z,40.80
2023-01-29T20:54:30.126Z,37.47
2023-01-29T20:56:57.147Z,41.13
2023-01-29T20:59:24.190Z,42.87
2023-01-29T21:01:51.134Z,41.60
2023-01-29T21:04:18.301Z,37.10
2023-01-29T21:06:45.092Z,39.93
2023-01-29T21:09:12.167Z,34.80
2023-01-29T21:11:38.889Z,43.40
2023-01-29T21:14:06.039Z,36.93
2023-01-29T21:16:32.950Z,62.00
2023-01-29T21:19:00.284Z,42.57
2023-01-29T21:21:27.151Z,37.53
2023-01-29T21:23:54.691Z,37.63
2023-01-29T21:26:23.245Z,54.33
2023-01-29T21:28:50.398Z,36.27
2023-01-29T21:31:17.715Z,35.73
2023-01-29T21:33:45.699Z,36.57
2023-01-29T21:36:12.895Z,35.97
2023-01-29T21:38:40.160Z,34.83
2023-01-29T21:41:09.688Z,34.77
2023-01-29T21:43:37.427Z,34.00
2023-01-29T21:46:13.368Z,36.27
2023-01-29T21:48:40.825Z,37.00
2023-01-29T21:51:08.099Z,35.07
2023-01-29T21:53:36.628Z,37.50
2023-01-29T21:56:05.175Z,39.53
2023-01-29T21:58:32.328Z,36.80
2023-01-29T22:01:35.769Z,37.57
2023-01-29T22:03:47.507Z,40.80
2023-01-29T22:06:15.422Z,39.87
2023-01-29T22:08:42.562Z,39.43
2023-01-29T22:11:10.146Z,36.00
2023-01-29T22:13:37.463Z,37.27
2023-01-29T22:16:05.905Z,40.93
2023-01-29T22:18:33.792Z,34.57
2023-01-29T22:21:02.945Z,35.50
2023-01-29T22:23:32.030Z,41.13
2023-01-29T22:26:03.679Z,40.00
2023-01-29T22:28:30.737Z,39.20
2023-01-29T22:31:05.355Z,38.20
2023-01-29T22:33:33.455Z,39.43
2023-01-29T22:36:01.111Z,41.00
2023-01-29T22:38:28.310Z,39.53
2023-01-29T22:40:56.785Z,38.27
2023-01-29T22:43:25.982Z,39.30
2023-01-29T22:45:53.084Z,38.57
2023-01-29T22:48:20.042Z,32.57
2023-01-29T22:50:53.783Z,36.97
2023-01-29T22:53:21.004Z,36.07
2023-01-29T22:55:55.550Z,38.77
2023-01-29T22:58:22.583Z,36.23
2023-01-29T23:00:52.413Z,35.83
2023-01-29T23:03:19.579Z,37.93
2023-01-29T23:05:46.440Z,35.73
2023-01-29T23:08:13.522Z,36.33
2023-01-29T23:10:40.367Z,40.23
2023-01-29T23:13:07.466Z,34.50
2023-01-29T23:15:34.176Z,38.13
2023-01-29T23:18:01.355Z,36.07
2023-01-29T23:20:28.083Z,41.57
2023-01-29T23:22:55.505Z,39.67
2023-01-29T23:25:22.756Z,37.70
2023-01-29T23:27:49.840Z,36.17
2023-01-29T23:30:17.277Z,37.33
2023-01-29T23:32:44.561Z,38.30
2023-01-29T23:35:11.242Z,39.53
2023-01-29T23:37:38.278Z,34.03
2023-01-29T23:40:05.507Z,33.97
2023-01-29T23:42:32.590Z,34.87
2023-01-29T23:44:59.329Z,32.40
2023-01-29T23:47:26.370Z,34.13
2023-01-29T23:49:53.207Z,29.83
2023-01-29T23:52:20.340Z,35.60
2023-01-29T23:54:47.060Z,29.30
2023-01-29T23:57:14.115Z,32.00
2023-01-29T23:59:41.009Z,30.67
